< < Back
Terminal Aerodrome Forecast


Current Version              Previous Versions:   1  2  3  4  5  6  7  8  9  

Terminal Aerodrome Forecast

434
FTUS44 KBMX 011100
TAFANB
TAF
KANB 011138Z 0112/0212 00000KT P6SM BKN150
     FM011500 20007KT P6SM BKN050
     FM020100 00000KT P6SM SCT250=

Latest METAR

083
SAUS70 KWBC 011500 RRR
MTRANB
METAR KANB 011453Z AUTO 23006KT 10SM CLR 28/22 A3014 RMK AO2 SLP197
T02780217 $


USA.gov is the U.S. government's official web portal to all federal, state and local government web resources and services.